createdAt,value
2022-09-20T00:00:00.361Z,95.1
2022-09-20T00:01:00.614Z,95.1
2022-09-20T00:02:00.675Z,95.1
2022-09-20T00:03:00.825Z,95.1
2022-09-20T00:04:00.968Z,95.1
2022-09-20T00:05:01.133Z,95.1
2022-09-20T00:07:00.363Z,95.1
2022-09-20T00:08:00.515Z,95.1
2022-09-20T00:09:00.656Z,95.1
2022-09-20T00:10:00.809Z,95.1
2022-09-20T00:11:00.960Z,95.1
2022-09-20T00:12:01.105Z,95.1
2022-09-20T00:13:01.284Z,95.1
2022-09-20T00:14:00.390Z,95.1
2022-09-20T00:15:00.543Z,95.1
2022-09-20T00:16:00.688Z,95
2022-09-20T00:17:00.870Z,95
2022-09-20T00:18:00.997Z,95
2022-09-20T00:19:01.128Z,95
2022-09-20T00:20:00.275Z,95
2022-09-20T00:21:00.414Z,95
2022-09-20T00:22:00.564Z,95
2022-09-20T00:23:00.747Z,95
2022-09-20T00:24:00.866Z,95
2022-09-20T00:25:01.038Z,95
2022-09-20T00:26:01.167Z,95
2022-09-20T00:27:00.325Z,95
2022-09-20T00:28:00.489Z,95
2022-09-20T00:29:00.605Z,95
2022-09-20T00:30:00.762Z,94.9
2022-09-20T00:31:00.905Z,94.9
2022-09-20T00:32:01.097Z,94.9
2022-09-20T00:33:01.238Z,94.9
2022-09-20T00:34:00.355Z,95
2022-09-20T00:35:00.510Z,95
2022-09-20T00:36:00.655Z,95
2022-09-20T00:37:00.815Z,95
2022-09-20T00:38:00.997Z,94.9
2022-09-20T00:39:01.129Z,94.9
2022-09-20T00:40:00.374Z,94.9
2022-09-20T00:41:00.409Z,94.9
2022-09-20T00:42:00.562Z,94.9
2022-09-20T00:43:00.734Z,94.9
2022-09-20T00:44:00.885Z,94.9
2022-09-20T00:45:01.004Z,94.9
2022-09-20T00:46:01.176Z,94.9
2022-09-20T00:47:00.300Z,94.9
2022-09-20T00:48:00.455Z,94.9
2022-09-20T00:49:00.606Z,94.9
2022-09-20T00:50:00.752Z,94.8
2022-09-20T00:51:00.884Z,94.8
2022-09-20T00:52:01.029Z,94.8
2022-09-20T00:53:01.184Z,94.8
2022-09-20T00:54:00.339Z,94.8
2022-09-20T00:55:00.482Z,94.8
2022-09-20T00:56:00.618Z,94.8
2022-09-20T00:57:00.771Z,94.7
2022-09-20T00:58:00.912Z,94.7
2022-09-20T00:59:01.080Z,94.7
2022-09-20T01:00:01.241Z,94.6
2022-09-20T01:01:00.438Z,94.6
2022-09-20T01:02:00.554Z,94.5
2022-09-20T01:03:00.640Z,94.5
2022-09-20T01:04:00.797Z,94.5
2022-09-20T01:05:00.967Z,94.5
2022-09-20T01:06:01.081Z,94.5
2022-09-20T01:07:01.233Z,94.5
2022-09-20T01:08:00.373Z,94.5
2022-09-20T01:09:00.524Z,94.5
2022-09-20T01:10:00.690Z,94.4
2022-09-20T01:11:00.841Z,94.4
2022-09-20T01:12:00.969Z,94.3
2022-09-20T01:13:01.158Z,94.3
2022-09-20T01:14:00.283Z,94.3
2022-09-20T01:15:00.426Z,94.3
2022-09-20T01:16:00.579Z,94.3
2022-09-20T01:17:00.800Z,94.2
2022-09-20T01:18:00.901Z,94.3
2022-09-20T01:19:01.026Z,94.3
2022-09-20T01:20:01.172Z,94.3
2022-09-20T01:21:00.307Z,94.3
2022-09-20T01:22:00.456Z,94.3
2022-09-20T01:23:00.634Z,94.3
2022-09-20T01:24:00.761Z,94.3
2022-09-20T01:25:00.908Z,94.3
2022-09-20T01:26:01.054Z,94.2
2022-09-20T01:27:01.202Z,94.2
2022-09-20T01:28:00.360Z,94.2
2022-09-20T01:29:00.499Z,94.2
2022-09-20T01:30:00.631Z,94.1
2022-09-20T01:31:00.798Z,94.1
2022-09-20T01:32:01.011Z,94.1
2022-09-20T01:33:01.129Z,94.1
2022-09-20T01:34:01.256Z,94.1
2022-09-20T01:35:00.396Z,94.1
2022-09-20T01:36:00.546Z,94.2
2022-09-20T01:37:00.700Z,94.1
2022-09-20T01:38:00.854Z,94.1
2022-09-20T01:39:01.011Z,94.1
2022-09-20T01:40:01.162Z,94.1
2022-09-20T01:41:00.297Z,94.1
2022-09-20T01:42:00.432Z,94.1
2022-09-20T01:43:00.590Z,94
2022-09-20T01:44:00.754Z,94.1
2022-09-20T01:45:00.873Z,94
2022-09-20T01:46:01.054Z,94
2022-09-20T01:47:01.182Z,94
2022-09-20T01:48:00.316Z,93.9
2022-09-20T01:49:00.487Z,93.9
2022-09-20T01:50:00.638Z,93.8
2022-09-20T01:51:00.772Z,93.8
2022-09-20T01:52:00.912Z,93.9
2022-09-20T01:53:01.059Z,93.9
2022-09-20T01:54:01.210Z,93.8
2022-09-20T01:55:00.382Z,93.8
2022-09-20T01:56:00.509Z,93.8
2022-09-20T01:57:00.669Z,93.8
2022-09-20T01:58:00.812Z,93.8
2022-09-20T01:59:22.713Z,93.8
2022-09-20T02:00:01.126Z,93.8
2022-09-20T02:01:00.326Z,93.8
2022-09-20T02:02:00.454Z,93.8
2022-09-20T02:03:00.555Z,93.8
2022-09-20T02:04:00.729Z,93.8
2022-09-20T02:05:00.855Z,93.8
2022-09-20T02:06:01.006Z,93.8
2022-09-20T02:07:01.154Z,93.8
2022-09-20T02:08:00.299Z,93.8
2022-09-20T02:09:00.485Z,93.7
2022-09-20T02:10:00.598Z,93.6
2022-09-20T02:11:00.748Z,93.7
2022-09-20T02:12:00.896Z,93.7
2022-09-20T02:13:01.037Z,93.8
2022-09-20T02:14:01.199Z,93.8
2022-09-20T02:15:00.345Z,93.8
2022-09-20T02:16:00.483Z,93.9
2022-09-20T02:17:00.756Z,93.8
2022-09-20T02:18:00.782Z,93.7
2022-09-20T02:19:00.933Z,93.8
2022-09-20T02:20:01.079Z,93.8
2022-09-20T02:21:01.232Z,93.8
2022-09-20T02:22:00.406Z,93.8
2022-09-20T02:23:00.597Z,93.8
2022-09-20T02:24:00.668Z,93.7
2022-09-20T02:25:00.820Z,93.8
2022-09-20T02:26:00.967Z,93.8
2022-09-20T02:27:01.123Z,93.8
2022-09-20T02:28:00.246Z,93.8
2022-09-20T02:29:00.394Z,93.9
2022-09-20T02:30:00.549Z,93.9
2022-09-20T02:31:00.692Z,93.9
2022-09-20T02:32:00.906Z,93.9
2022-09-20T02:33:01.002Z,93.9
2022-09-20T02:34:01.129Z,93.9
2022-09-20T02:35:00.280Z,93.9
2022-09-20T02:36:00.424Z,94
2022-09-20T02:37:00.594Z,94
2022-09-20T02:38:00.726Z,93.9
2022-09-20T02:39:00.865Z,93.9
2022-09-20T02:40:01.041Z,94
2022-09-20T02:41:01.166Z,94
2022-09-20T02:42:00.331Z,94
2022-09-20T02:43:00.468Z,94.1
2022-09-20T02:44:00.614Z,94
2022-09-20T02:45:00.771Z,94
2022-09-20T02:46:00.975Z,94.1
2022-09-20T02:47:01.089Z,94.1
2022-09-20T02:48:01.220Z,94.1
2022-09-20T02:49:00.351Z,94
2022-09-20T02:50:00.502Z,94
2022-09-20T02:51:00.659Z,94.1
2022-09-20T02:52:00.814Z,94.1
2022-09-20T02:53:00.953Z,94.2
2022-09-20T02:54:01.098Z,94.1
2022-09-20T02:55:01.240Z,94.1
2022-09-20T02:56:00.401Z,94.1
2022-09-20T02:57:00.566Z,94.1
2022-09-20T02:58:00.723Z,94.1
2022-09-20T02:59:00.851Z,94.1
2022-09-20T03:00:01.001Z,94.1
2022-09-20T03:01:01.204Z,94.1
2022-09-20T03:02:00.329Z,94.1
2022-09-20T03:03:00.471Z,94.1
2022-09-20T03:04:00.608Z,94.1
2022-09-20T03:05:00.741Z,94.1
2022-09-20T03:06:00.898Z,94.1
2022-09-20T03:07:01.036Z,94.1
2022-09-20T03:08:03.072Z,94.1
2022-09-20T03:09:00.331Z,94.1
2022-09-20T03:10:00.487Z,94.1
2022-09-20T03:11:00.622Z,94.1
2022-09-20T03:12:00.774Z,94.1
2022-09-20T03:13:00.939Z,94
2022-09-20T03:14:01.095Z,94
2022-09-20T03:15:01.215Z,94
2022-09-20T03:16:00.370Z,94
2022-09-20T03:17:00.538Z,94
2022-09-20T03:18:00.662Z,94
2022-09-20T03:19:00.831Z,94
2022-09-20T03:20:00.955Z,94.1
2022-09-20T03:21:01.103Z,94
2022-09-20T03:22:01.247Z,94
2022-09-20T03:23:00.381Z,94
2022-09-20T03:24:00.543Z,94
2022-09-20T03:25:00.704Z,94.1
2022-09-20T03:26:00.811Z,94
2022-09-20T03:27:00.948Z,93.9
2022-09-20T03:28:01.102Z,94
2022-09-20T03:29:01.255Z,94
2022-09-20T03:30:00.420Z,94.1
2022-09-20T03:31:00.574Z,94.1
2022-09-20T03:32:00.727Z,94.1
2022-09-20T03:33:00.837Z,94.2
2022-09-20T03:34:00.993Z,94.2
2022-09-20T03:35:01.164Z,94.1
2022-09-20T03:36:00.295Z,94.1
2022-09-20T03:37:00.435Z,94.2
2022-09-20T03:38:00.590Z,94.2
2022-09-20T03:39:00.742Z,94.3
2022-09-20T03:40:00.931Z,94.2
2022-09-20T03:41:01.032Z,94.2
2022-09-20T03:42:01.191Z,94.2
2022-09-20T03:43:00.333Z,94.2
2022-09-20T03:44:00.480Z,94.1
2022-09-20T03:45:00.653Z,94.2
2022-09-20T03:46:00.863Z,94.2
2022-09-20T03:47:00.919Z,94.3
2022-09-20T03:48:01.083Z,94.3
2022-09-20T03:49:01.232Z,94.3
2022-09-20T03:50:00.395Z,94.3
2022-09-20T03:51:00.521Z,94.2
2022-09-20T03:52:00.659Z,94.3
2022-09-20T03:53:00.815Z,94.3
2022-09-20T03:54:00.955Z,94.3
2022-09-20T03:55:01.120Z,94.3
2022-09-20T03:56:01.273Z,94.3
2022-09-20T03:57:00.395Z,94.3
2022-09-20T03:58:00.547Z,94.3
2022-09-20T03:59:00.694Z,94.2
2022-09-20T04:00:00.849Z,94.2
2022-09-20T04:01:01.096Z,94.2
2022-09-20T04:02:01.184Z,94.2
2022-09-20T04:03:00.276Z,94.2
2022-09-20T04:04:00.431Z,94.2
2022-09-20T04:05:00.582Z,94.2
2022-09-20T04:06:00.749Z,94.2
2022-09-20T04:07:00.873Z,94.2
2022-09-20T04:08:01.025Z,94.2
2022-09-20T04:09:01.181Z,94.3
2022-09-20T04:10:00.326Z,94.3
2022-09-20T04:11:00.486Z,94.3
2022-09-20T04:12:00.613Z,94.1
2022-09-20T04:13:00.768Z,94.1
2022-09-20T04:14:00.911Z,94.1
2022-09-20T04:15:01.052Z,94.1
2022-09-20T04:16:01.238Z,94.1
2022-09-20T04:17:00.489Z,94.1
2022-09-20T04:18:00.514Z,94.1
2022-09-20T04:19:00.663Z,94.1
2022-09-20T04:20:00.815Z,94.1
2022-09-20T04:21:00.975Z,94.1
2022-09-20T04:22:01.172Z,94.2
2022-09-20T04:23:00.267Z,94.2
2022-09-20T04:24:00.413Z,94.2
2022-09-20T04:25:00.558Z,94.2
2022-09-20T04:26:00.713Z,94.2
2022-09-20T04:27:00.876Z,94.1
2022-09-20T04:28:01.018Z,94.2
2022-09-20T04:29:01.178Z,94.2
2022-09-20T04:30:00.301Z,94.2
2022-09-20T04:31:00.448Z,94.2
2022-09-20T04:32:00.704Z,94.2
2022-09-20T04:33:00.743Z,94.2
2022-09-20T04:34:00.887Z,94.2
2022-09-20T04:35:01.043Z,94.1
2022-09-20T04:36:01.187Z,94.1
2022-09-20T04:37:00.347Z,94.1
2022-09-20T04:38:00.483Z,94.2
2022-09-20T04:39:00.624Z,94.1
2022-09-20T04:40:00.787Z,94.2
2022-09-20T04:41:00.918Z,94.2
2022-09-20T04:42:01.077Z,94.2
2022-09-20T04:43:01.223Z,94.2
2022-09-20T04:44:00.353Z,94.2
2022-09-20T04:45:00.501Z,94.2
2022-09-20T04:46:00.699Z,94.2
2022-09-20T04:47:00.796Z,94.3
2022-09-20T04:48:00.973Z,94.2
2022-09-20T04:49:01.102Z,94.2
2022-09-20T04:50:01.257Z,94.2
2022-09-20T04:51:00.403Z,94.2
2022-09-20T04:52:00.542Z,94.2
2022-09-20T04:53:00.717Z,94.2
2022-09-20T04:54:00.830Z,94.3
2022-09-20T04:55:00.993Z,94.2
2022-09-20T04:56:01.132Z,94.2
2022-09-20T04:57:00.274Z,94.3
2022-09-20T04:58:00.442Z,94.3
2022-09-20T04:59:00.565Z,94.2
2022-09-20T05:00:00.721Z,94.2
2022-09-20T05:01:00.993Z,94.2
2022-09-20T05:02:01.101Z,94.2
2022-09-20T05:03:01.173Z,94.2
2022-09-20T05:04:00.310Z,94.3
2022-09-20T05:05:00.475Z,94.3
2022-09-20T05:06:00.598Z,94.3
2022-09-20T05:07:00.753Z,94.2
2022-09-20T05:08:00.897Z,94.2
2022-09-20T05:09:01.185Z,94.2
2022-09-20T05:10:01.223Z,94.2
2022-09-20T05:11:00.360Z,94.2
2022-09-20T05:12:00.503Z,94.2
2022-09-20T05:13:00.653Z,94.2
2022-09-20T05:14:00.803Z,94.2
2022-09-20T05:15:00.982Z,94.2
2022-09-20T05:16:01.103Z,94.2
2022-09-20T05:17:01.329Z,94.2
2022-09-20T05:18:00.397Z,94.2
2022-09-20T05:19:00.535Z,94.2
2022-09-20T05:20:00.711Z,94.2
2022-09-20T05:21:00.855Z,94.2
2022-09-20T05:22:00.994Z,94.2
2022-09-20T05:23:01.147Z,94.2
2022-09-20T05:24:00.292Z,94.2
2022-09-20T05:25:00.464Z,94.2
2022-09-20T05:26:00.601Z,94.2
2022-09-20T05:27:00.743Z,94.2
2022-09-20T05:28:00.894Z,94.2
2022-09-20T05:29:01.034Z,94.2
2022-09-20T05:30:04.864Z,94.2
2022-09-20T05:31:00.348Z,94.2
2022-09-20T05:32:00.525Z,94.2
2022-09-20T05:33:00.621Z,94.3
2022-09-20T05:34:00.771Z,94.3
2022-09-20T05:35:00.950Z,94.3
2022-09-20T05:36:01.074Z,94.3
2022-09-20T05:37:01.227Z,94.3
2022-09-20T05:38:00.378Z,94.3
2022-09-20T05:39:03.389Z,94.3
2022-09-20T05:40:00.746Z,94.3
2022-09-20T05:41:00.828Z,94.3
2022-09-20T05:42:00.981Z,94.3
2022-09-20T05:43:01.139Z,94.4
2022-09-20T05:44:00.273Z,94.4
2022-09-20T05:45:00.437Z,94.4
2022-09-20T05:46:00.593Z,94.4
2022-09-20T05:47:00.714Z,94.4
2022-09-20T05:48:00.862Z,94.4
2022-09-20T05:49:01.010Z,94.4
2022-09-20T05:50:01.181Z,94.4
2022-09-20T05:51:03.822Z,94.4
2022-09-20T05:52:00.448Z,94.4
2022-09-20T05:53:00.603Z,94.5
2022-09-20T05:54:00.746Z,94.5
2022-09-20T05:55:00.936Z,94.5
2022-09-20T05:56:01.058Z,94.5
2022-09-20T05:57:01.202Z,94.5
2022-09-20T05:58:00.347Z,94.5
2022-09-20T05:59:00.494Z,94.5
2022-09-20T06:00:00.669Z,94.4
2022-09-20T06:01:00.809Z,94.4
2022-09-20T06:02:01.033Z,94.5
2022-09-20T06:03:01.083Z,94.5
2022-09-20T06:04:01.240Z,94.5
2022-09-20T06:05:00.397Z,94.4
2022-09-20T06:06:00.554Z,94.4
2022-09-20T06:07:00.683Z,94.4
2022-09-20T06:08:00.838Z,94.4
2022-09-20T06:09:00.975Z,94.4
2022-09-20T06:10:01.124Z,94.4
2022-09-20T06:11:00.278Z,94.4
2022-09-20T06:12:00.407Z,94.4
2022-09-20T06:13:00.565Z,94.4
2022-09-20T06:14:00.715Z,94.4
2022-09-20T06:15:00.873Z,94.4
2022-09-20T06:16:01.044Z,94.4
2022-09-20T06:17:01.145Z,94.3
2022-09-20T06:18:00.302Z,94.3
2022-09-20T06:19:00.445Z,94.3
2022-09-20T06:20:00.607Z,94.3
2022-09-20T06:21:00.795Z,94.3
2022-09-20T06:22:03.481Z,94.2
2022-09-20T06:23:01.074Z,94.1
2022-09-20T06:24:01.221Z,94.2
2022-09-20T06:25:00.356Z,94.2
2022-09-20T06:26:00.528Z,94.2
2022-09-20T06:27:00.691Z,94.1
2022-09-20T06:28:00.808Z,94.1
2022-09-20T06:29:00.955Z,94.1
2022-09-20T06:30:01.108Z,94.1
2022-09-20T06:31:00.298Z,94.1
2022-09-20T06:32:00.415Z,94
2022-09-20T06:33:00.559Z,94
2022-09-20T06:34:00.703Z,94
2022-09-20T06:35:00.848Z,93.9
2022-09-20T06:36:00.991Z,93.9
2022-09-20T06:37:01.175Z,93.9
2022-09-20T06:38:00.290Z,93.9
2022-09-20T06:39:00.445Z,93.8
2022-09-20T06:40:00.636Z,93.8
2022-09-20T06:41:00.760Z,93.7
2022-09-20T06:42:00.932Z,93.7
2022-09-20T06:43:01.047Z,93.6
2022-09-20T06:44:01.220Z,93.6
2022-09-20T06:45:00.349Z,93.7
2022-09-20T06:46:00.540Z,93.6
2022-09-20T06:47:00.668Z,93.5
2022-09-20T06:48:00.802Z,93.5
2022-09-20T06:49:00.945Z,93.5
2022-09-20T06:50:01.092Z,93.5
2022-09-20T06:51:01.243Z,93.4
2022-09-20T06:52:00.402Z,93.4
2022-09-20T06:53:00.546Z,93.4
2022-09-20T06:54:00.680Z,93.4
2022-09-20T06:55:00.830Z,93.3
2022-09-20T06:56:00.979Z,93.2
2022-09-20T06:57:01.120Z,93.3
2022-09-20T06:58:00.291Z,93.4
2022-09-20T06:59:00.418Z,93.3
2022-09-20T07:00:00.566Z,93.2
2022-09-20T07:01:00.756Z,93.3
2022-09-20T07:02:00.885Z,93.1
2022-09-20T07:03:01.022Z,92.9
2022-09-20T07:04:01.163Z,92.9
2022-09-20T07:05:00.305Z,92.8
2022-09-20T07:06:00.428Z,92.9
2022-09-20T07:07:00.569Z,92.7
2022-09-20T07:08:00.718Z,92.6
2022-09-20T07:09:00.893Z,92.6
2022-09-20T07:10:01.015Z,92.6
2022-09-20T07:11:01.158Z,92.6
2022-09-20T07:12:00.292Z,92.5
2022-09-20T07:13:00.452Z,92.4
2022-09-20T07:14:00.604Z,92.3
2022-09-20T07:15:00.748Z,92.2
2022-09-20T07:16:00.890Z,92.2
2022-09-20T07:17:01.064Z,92.3
2022-09-20T07:18:01.203Z,92.3
2022-09-20T07:19:00.340Z,92.2
2022-09-20T07:20:00.485Z,91.9
2022-09-20T07:21:00.638Z,91.8
2022-09-20T07:22:00.810Z,91.7
2022-09-20T07:23:00.954Z,91.8
2022-09-20T07:24:01.076Z,91.7
2022-09-20T07:25:01.234Z,91.5
2022-09-20T07:26:00.403Z,91.4
2022-09-20T07:27:00.528Z,91.4
2022-09-20T07:28:00.675Z,91.3
2022-09-20T07:29:00.822Z,91.2
2022-09-20T07:30:00.975Z,91.2
2022-09-20T07:31:01.138Z,91.1
2022-09-20T07:32:00.321Z,91
2022-09-20T07:33:00.420Z,90.7
2022-09-20T07:34:00.582Z,90.7
2022-09-20T07:35:00.734Z,90.8
2022-09-20T07:36:00.887Z,91
2022-09-20T07:37:01.027Z,90.9
2022-09-20T07:38:01.180Z,90.6
2022-09-20T07:39:00.333Z,90.5
2022-09-20T07:40:00.545Z,90.4
2022-09-20T07:41:00.662Z,90.4
2022-09-20T07:42:00.798Z,89.9
2022-09-20T07:43:00.923Z,89.6
2022-09-20T07:44:01.058Z,89.6
2022-09-20T07:45:01.211Z,89.2
2022-09-20T07:46:00.443Z,89.4
2022-09-20T07:47:00.558Z,89.9
2022-09-20T07:48:00.650Z,90.3
2022-09-20T07:49:00.806Z,90.5
2022-09-20T07:50:00.969Z,89.8
2022-09-20T07:51:01.119Z,89.5
2022-09-20T07:52:00.280Z,88.9
2022-09-20T07:53:00.444Z,88.7
2022-09-20T07:54:00.566Z,89
2022-09-20T07:55:00.722Z,88.4
2022-09-20T07:56:00.863Z,88.5
2022-09-20T07:57:01.016Z,88.9
2022-09-20T07:58:01.174Z,88.9
2022-09-20T07:59:00.305Z,89.4
2022-09-20T08:00:00.445Z,89.7
2022-09-20T08:01:00.614Z,89.9
2022-09-20T08:02:00.866Z,89.7
2022-09-20T08:03:00.912Z,89.7
2022-09-20T08:04:01.061Z,89.9
2022-09-20T08:05:01.212Z,90.1
2022-09-20T08:06:00.333Z,90.2
2022-09-20T08:07:00.472Z,90
2022-09-20T08:08:00.613Z,89.7
2022-09-20T08:09:00.780Z,89.2
2022-09-20T08:10:00.956Z,88.9
2022-09-20T08:11:01.085Z,88.4
2022-09-20T08:14:05.245Z,88.6
2022-09-20T08:14:08.371Z,89
2022-09-20T08:15:00.694Z,89.3
2022-09-20T08:16:00.839Z,89
2022-09-20T08:17:00.965Z,88.4
2022-09-20T08:18:01.108Z,88.1
2022-09-20T08:20:00.355Z,89.2
2022-09-20T08:21:00.519Z,89.7
2022-09-20T08:22:00.664Z,89.7
2022-09-20T08:23:22.144Z,89.5
2022-09-20T08:24:00.996Z,88.9
2022-09-20T08:25:01.105Z,89.1
2022-09-20T08:26:01.241Z,89.3
2022-09-20T08:27:00.389Z,88.8
2022-09-20T08:28:00.539Z,89.1
2022-09-20T08:29:00.729Z,89.4
2022-09-20T08:30:00.842Z,89.7
2022-09-20T08:31:01.016Z,89.1
2022-09-20T08:32:01.202Z,87.6
2022-09-20T08:33:00.273Z,86.9
2022-09-20T08:34:00.451Z,86.7
2022-09-20T08:35:00.595Z,87.6
2022-09-20T08:36:00.730Z,88
2022-09-20T08:37:00.886Z,87.6
2022-09-20T08:40:00.561Z,88.7
2022-09-20T08:41:00.461Z,88.1
2022-09-20T08:42:00.612Z,88.2
2022-09-20T08:43:05.318Z,88.5
2022-09-20T08:44:00.934Z,88.6
2022-09-20T08:45:01.064Z,88.4
2022-09-20T08:46:05.404Z,88.7
2022-09-20T08:47:00.353Z,88.8
2022-09-20T08:48:00.498Z,88.4
2022-09-20T08:49:00.665Z,88.8
2022-09-20T08:50:00.951Z,89.1
2022-09-20T08:51:05.698Z,89.5
2022-09-20T08:52:01.084Z,89.3
2022-09-20T08:53:01.239Z,88.6
2022-09-20T08:54:00.401Z,88.6
2022-09-20T08:55:00.535Z,88.9
2022-09-20T08:56:00.681Z,88.9
2022-09-20T08:57:00.828Z,88.2
2022-09-20T08:58:02.978Z,88.3
2022-09-20T08:59:01.136Z,88.6
2022-09-20T09:00:00.267Z,88.6
2022-09-20T09:01:00.458Z,87.6
2022-09-20T09:02:00.604Z,87.7
2022-09-20T09:03:00.720Z,87.7
2022-09-20T09:04:00.883Z,88.4
2022-09-20T09:05:01.029Z,88.7
2022-09-20T09:06:01.172Z,88.7
2022-09-20T09:07:00.315Z,88.7
2022-09-20T09:08:00.462Z,88.2
2022-09-20T09:09:00.605Z,88.5
2022-09-20T09:10:00.768Z,88.5
2022-09-20T09:11:00.901Z,88.5
2022-09-20T09:12:01.056Z,88.3
2022-09-20T09:13:01.201Z,88.5
2022-09-20T09:14:00.345Z,88
2022-09-20T09:15:00.514Z,86.9
2022-09-20T09:16:00.642Z,86.5
2022-09-20T09:17:00.897Z,87.3
2022-09-20T09:18:00.957Z,86.5
2022-09-20T09:19:01.107Z,87.7
2022-09-20T09:20:01.258Z,86.7
2022-09-20T09:21:00.401Z,86.3
2022-09-20T09:22:00.533Z,85.8
2022-09-20T09:23:00.693Z,85.8
2022-09-20T09:24:00.830Z,86.8
2022-09-20T09:25:00.999Z,87.1
2022-09-20T09:26:01.164Z,86.3
2022-09-20T09:27:00.298Z,87
2022-09-20T09:28:00.434Z,86.2
2022-09-20T09:29:00.556Z,86.2
2022-09-20T09:30:00.704Z,86.2
2022-09-20T09:31:00.884Z,85.5
2022-09-20T09:32:01.047Z,86.5
2022-09-20T09:33:01.129Z,86.4
2022-09-20T09:34:00.270Z,85.1
2022-09-20T09:35:00.420Z,85.4
2022-09-20T09:36:00.594Z,86.3
2022-09-20T09:37:00.723Z,85.9
2022-09-20T09:38:00.867Z,85.7
2022-09-20T09:39:01.018Z,86.1
2022-09-20T09:40:01.223Z,86.2
2022-09-20T09:41:00.318Z,85.9
2022-09-20T09:42:00.465Z,85.7
2022-09-20T09:43:00.601Z,85.7
2022-09-20T09:44:00.749Z,85.9
2022-09-20T09:45:00.894Z,86
2022-09-20T09:46:01.115Z,86.5
2022-09-20T09:47:01.196Z,86.6
2022-09-20T09:48:00.344Z,87.1
2022-09-20T09:49:00.483Z,87
2022-09-20T09:50:04.905Z,87.4
2022-09-20T09:51:00.802Z,86.8
2022-09-20T09:52:00.956Z,87
2022-09-20T09:53:01.083Z,86.9
2022-09-20T09:54:01.231Z,86.4
2022-09-20T09:55:03.391Z,86.5
2022-09-20T09:56:00.549Z,86.4
2022-09-20T09:57:00.701Z,86.1
2022-09-20T09:58:00.848Z,86.8
2022-09-20T09:59:00.992Z,86.9
2022-09-20T10:00:03.965Z,87.4
2022-09-20T10:01:00.342Z,87.5
2022-09-20T10:02:00.470Z,87.6
2022-09-20T10:03:00.571Z,87.7
2022-09-20T10:04:00.722Z,87.6
2022-09-20T10:05:00.861Z,86.7
2022-09-20T10:06:01.011Z,86.2
2022-09-20T10:07:01.192Z,86.9
2022-09-20T10:08:00.314Z,85.8
2022-09-20T10:09:00.457Z,86.3
2022-09-20T10:10:00.614Z,87.1
2022-09-20T10:11:00.750Z,87
2022-09-20T10:12:00.909Z,85.8
2022-09-20T10:13:01.057Z,85.3
2022-09-20T10:14:01.181Z,85.7
2022-09-20T10:15:00.325Z,86
2022-09-20T10:16:00.471Z,85.8
2022-09-20T10:17:00.640Z,85.1
2022-09-20T10:18:00.771Z,84.8
2022-09-20T10:19:00.917Z,85.5
2022-09-20T10:20:01.057Z,85.9
2022-09-20T10:21:01.213Z,85
2022-09-20T10:22:00.368Z,85.2
2022-09-20T10:23:34.369Z,84.9
2022-09-20T10:24:04.212Z,85.1
2022-09-20T10:25:00.783Z,84.5
2022-09-20T10:26:00.935Z,85.3
2022-09-20T10:27:01.091Z,86.1
2022-09-20T10:28:01.221Z,85.3
2022-09-20T10:29:00.365Z,84.4
2022-09-20T10:30:00.501Z,85.3
2022-09-20T10:31:00.686Z,84.9
2022-09-20T10:32:00.845Z,84.6
2022-09-20T10:33:01.003Z,83.8
2022-09-20T10:34:01.133Z,83
2022-09-20T10:35:00.285Z,84
2022-09-20T10:36:00.420Z,84.3
2022-09-20T10:37:00.570Z,84.9
2022-09-20T10:38:00.732Z,84.1
2022-09-20T10:39:00.860Z,83.3
2022-09-20T10:40:01.048Z,84.4
2022-09-20T10:41:01.190Z,83.4
2022-09-20T10:42:00.297Z,81.8
2022-09-20T10:43:00.471Z,81.8
2022-09-20T10:44:05.051Z,83.7
2022-09-20T10:45:00.750Z,83.7
2022-09-20T10:46:27.962Z,81.9
2022-09-20T10:47:01.115Z,81.1
2022-09-20T10:48:01.189Z,82.3
2022-09-20T10:49:00.375Z,80.7
2022-09-20T10:50:00.482Z,80.7
2022-09-20T10:51:00.612Z,81.3
2022-09-20T10:52:00.786Z,81
2022-09-20T10:53:00.922Z,80.9
2022-09-20T10:54:01.114Z,81.5
2022-09-20T10:55:01.248Z,81.8
2022-09-20T10:56:00.373Z,81.9
2022-09-20T10:57:00.557Z,80
2022-09-20T10:58:00.679Z,81.3
2022-09-20T10:59:00.841Z,82.2
2022-09-20T11:00:00.981Z,81.1
2022-09-20T11:01:01.152Z,80.1
2022-09-20T11:02:00.353Z,79.7
2022-09-20T11:03:00.410Z,81.6
2022-09-20T11:04:00.592Z,82.3
2022-09-20T11:05:00.720Z,81.1
2022-09-20T11:06:00.852Z,82.4
2022-09-20T11:07:01.001Z,80.1
2022-09-20T11:08:01.153Z,78.9
2022-09-20T11:09:00.308Z,79.3
2022-09-20T11:10:00.472Z,80.6
2022-09-20T11:11:00.588Z,79.8
2022-09-20T11:12:00.745Z,80
2022-09-20T11:13:00.890Z,78.3
2022-09-20T11:14:01.041Z,79.1
2022-09-20T11:15:01.207Z,80
2022-09-20T11:16:00.331Z,82.2
2022-09-20T11:17:00.670Z,78.8
2022-09-20T11:18:00.622Z,80.2
2022-09-20T11:19:00.772Z,80
2022-09-20T11:20:06.240Z,80
2022-09-20T11:21:01.083Z,81.6
2022-09-20T11:22:01.220Z,81.9
2022-09-20T11:23:00.351Z,82.6
2022-09-20T11:24:00.512Z,82.9
2022-09-20T11:25:00.643Z,81.3
2022-09-20T11:26:00.796Z,80.4
2022-09-20T11:27:00.938Z,81.1
2022-09-20T11:28:01.098Z,80.6
2022-09-20T11:29:01.275Z,80.2
2022-09-20T11:30:00.406Z,79.7
2022-09-20T11:31:00.544Z,79.2
2022-09-20T11:32:00.767Z,80.1
2022-09-20T11:33:00.848Z,80.8
2022-09-20T11:34:01.009Z,80.2
2022-09-20T11:35:01.122Z,79.6
2022-09-20T11:36:00.276Z,79.2
2022-09-20T11:37:00.442Z,80.1
2022-09-20T11:38:00.572Z,80.8
2022-09-20T11:39:00.741Z,80.3
2022-09-20T11:40:00.997Z,79.8
2022-09-20T11:41:01.021Z,81.5
2022-09-20T11:42:01.160Z,79.8
2022-09-20T11:43:00.305Z,79.8
2022-09-20T11:44:00.453Z,79.8
2022-09-20T11:45:00.640Z,79.8
2022-09-20T11:46:00.859Z,79.8
2022-09-20T11:47:00.914Z,79.9
2022-09-20T11:48:01.073Z,80.9
2022-09-20T11:49:01.212Z,81.5
2022-09-20T11:50:00.375Z,81.2
2022-09-20T11:51:00.510Z,80.8
2022-09-20T11:52:00.650Z,82
2022-09-20T11:53:00.790Z,81.4
2022-09-20T11:54:00.950Z,79.9
2022-09-20T11:55:01.128Z,79.9
2022-09-20T11:56:01.246Z,80.3
2022-09-20T11:57:00.392Z,79.6
2022-09-20T11:58:00.549Z,79.6
2022-09-20T11:59:00.696Z,81
2022-09-20T12:00:00.863Z,81.2
2022-09-20T12:01:00.991Z,80.7
2022-09-20T12:02:01.224Z,80.1
2022-09-20T12:03:00.394Z,81
2022-09-20T12:04:27.934Z,82.1
2022-09-20T12:05:00.599Z,80.5
2022-09-20T12:06:00.736Z,81
2022-09-20T12:07:04.571Z,80.9
2022-09-20T12:08:01.049Z,79.2
2022-09-20T12:09:01.168Z,79.5
2022-09-20T12:10:00.334Z,79.2
2022-09-20T12:11:00.485Z,78.7
2022-09-20T12:12:00.603Z,78.1
2022-09-20T12:13:00.755Z,80.4
2022-09-20T12:14:00.893Z,80.6
2022-09-20T12:15:01.048Z,79.1
2022-09-20T12:16:01.219Z,78.8
2022-09-20T12:17:00.337Z,79.5
2022-09-20T12:18:01.820Z,80.8
2022-09-20T12:19:00.632Z,81.5
2022-09-20T12:20:00.781Z,83.1
2022-09-20T12:21:00.959Z,80.6
2022-09-20T12:22:01.085Z,80.6
2022-09-20T12:23:01.235Z,79.2
2022-09-20T12:24:00.365Z,80.1
2022-09-20T12:25:00.519Z,78.5
2022-09-20T12:26:00.688Z,78.8
2022-09-20T12:27:00.823Z,79.1
2022-09-20T12:28:00.956Z,79
2022-09-20T12:29:01.123Z,79.5
2022-09-20T12:30:00.265Z,78.2
2022-09-20T12:31:00.485Z,77.3
2022-09-20T12:32:00.588Z,77.8
2022-09-20T12:33:00.699Z,77.6
2022-09-20T12:34:00.857Z,78.6
2022-09-20T12:35:01.005Z,78.7
2022-09-20T12:36:01.187Z,77.5
2022-09-20T12:37:00.295Z,80.2
2022-09-20T12:38:00.451Z,78.5
2022-09-20T12:39:00.611Z,78.3
2022-09-20T12:40:00.777Z,77.8
2022-09-20T12:41:00.930Z,79
2022-09-20T12:42:01.040Z,80.5
2022-09-20T12:43:01.193Z,79.4
2022-09-20T12:44:00.337Z,77.7
2022-09-20T12:45:00.486Z,79.5
2022-09-20T12:46:05.395Z,80
2022-09-20T12:47:00.810Z,77
2022-09-20T12:48:00.949Z,78.2
2022-09-20T12:49:01.097Z,77.4
2022-09-20T12:50:01.238Z,78.5
2022-09-20T12:51:00.391Z,74.9
2022-09-20T12:52:00.553Z,75.5
2022-09-20T12:53:00.766Z,74.4
2022-09-20T12:54:00.845Z,73.3
2022-09-20T12:55:04.723Z,75.1
2022-09-20T12:56:01.145Z,75
2022-09-20T12:57:00.271Z,76.2
2022-09-20T12:58:00.447Z,76.2
2022-09-20T12:59:00.566Z,75.5
2022-09-20T13:00:00.703Z,74
2022-09-20T13:01:00.925Z,71.6
2022-09-20T13:02:01.122Z,70.9
2022-09-20T13:03:01.192Z,71.6
2022-09-20T13:04:00.319Z,72
2022-09-20T13:05:00.466Z,73.3
2022-09-20T13:06:00.620Z,76.3
2022-09-20T13:07:00.770Z,72.8
2022-09-20T13:08:00.931Z,72
2022-09-20T13:09:01.064Z,73
2022-09-20T13:10:01.216Z,74
2022-09-20T13:11:00.364Z,74
2022-09-20T13:12:00.519Z,73.7
2022-09-20T13:13:00.653Z,73.3
2022-09-20T13:14:00.815Z,72.7
2022-09-20T13:15:00.952Z,74.2
2022-09-20T13:16:01.141Z,74.2
2022-09-20T13:17:01.233Z,74.5
2022-09-20T13:18:00.371Z,73.3
2022-09-20T13:19:00.532Z,73.9
2022-09-20T13:20:00.670Z,72
2022-09-20T13:21:00.812Z,71.9
2022-09-20T13:22:00.952Z,72.5
2022-09-20T13:23:01.119Z,73.1
2022-09-20T13:24:01.236Z,74.2
2022-09-20T13:25:00.411Z,73.7
2022-09-20T13:26:00.538Z,75.3
2022-09-20T13:27:00.675Z,72.9
2022-09-20T13:28:00.831Z,73.9
2022-09-20T13:29:00.981Z,74.6